sensor_id;sensor_type;location;lat;lon;timestamp;P1;durP1;ratioP1;P2;durP2;ratioP2
40162;SDS011;25881;47.462;19.304;2022-12-07T00:00:25;42.63;;;25.77;;
40162;SDS011;25881;47.462;19.304;2022-12-07T00:02:50;39.20;;;24.17;;
40162;SDS011;25881;47.462;19.304;2022-12-07T00:05:15;42.80;;;26.33;;
40162;SDS011;25881;47.462;19.304;2022-12-07T00:07:40;42.40;;;25.80;;
40162;SDS011;25881;47.462;19.304;2022-12-07T00:10:06;47.83;;;26.43;;
40162;SDS011;25881;47.462;19.304;2022-12-07T00:12:31;40.20;;;24.55;;
40162;SDS011;25881;47.462;19.304;2022-12-07T00:14:56;36.63;;;23.57;;
40162;SDS011;25881;47.462;19.304;2022-12-07T00:17:21;35.90;;;23.57;;
40162;SDS011;25881;47.462;19.304;2022-12-07T00:19:47;34.17;;;22.40;;
40162;SDS011;25881;47.462;19.304;2022-12-07T00:22:12;35.13;;;24.30;;
40162;SDS011;25881;47.462;19.304;2022-12-07T00:24:37;39.40;;;23.20;;
40162;SDS011;25881;47.462;19.304;2022-12-07T00:27:02;34.07;;;22.43;;
40162;SDS011;25881;47.462;19.304;2022-12-07T00:29:28;34.15;;;22.27;;
40162;SDS011;25881;47.462;19.304;2022-12-07T00:31:53;34.90;;;22.92;;
40162;SDS011;25881;47.462;19.304;2022-12-07T00:34:19;34.17;;;21.60;;
40162;SDS011;25881;47.462;19.304;2022-12-07T00:36:44;31.85;;;22.48;;
40162;SDS011;25881;47.462;19.304;2022-12-07T00:39:10;36.55;;;21.63;;
40162;SDS011;25881;47.462;19.304;2022-12-07T00:41:35;34.10;;;22.25;;
40162;SDS011;25881;47.462;19.304;2022-12-07T00:44:01;34.63;;;22.83;;
40162;SDS011;25881;47.462;19.304;2022-12-07T00:46:26;35.67;;;21.03;;
40162;SDS011;25881;47.462;19.304;2022-12-07T00:48:52;31.92;;;23.00;;
40162;SDS011;25881;47.462;19.304;2022-12-07T00:51:18;32.28;;;21.50;;
40162;SDS011;25881;47.462;19.304;2022-12-07T00:53:44;35.88;;;23.30;;
40162;SDS011;25881;47.462;19.304;2022-12-07T00:56:13;40.05;;;23.92;;
40162;SDS011;25881;47.462;19.304;2022-12-07T00:58:38;39.72;;;24.90;;
40162;SDS011;25881;47.462;19.304;2022-12-07T01:01:04;35.83;;;23.80;;
40162;SDS011;25881;47.462;19.304;2022-12-07T01:03:30;42.60;;;25.85;;
40162;SDS011;25881;47.462;19.304;2022-12-07T01:05:55;40.60;;;24.53;;
40162;SDS011;25881;47.462;19.304;2022-12-07T01:08:21;41.55;;;24.52;;
40162;SDS011;25881;47.462;19.304;2022-12-07T01:10:47;38.72;;;24.30;;
40162;SDS011;25881;47.462;19.304;2022-12-07T01:13:12;46.38;;;26.30;;
40162;SDS011;25881;47.462;19.304;2022-12-07T01:15:42;45.27;;;27.30;;
40162;SDS011;25881;47.462;19.304;2022-12-07T01:18:07;38.85;;;26.25;;
40162;SDS011;25881;47.462;19.304;2022-12-07T01:20:33;46.08;;;29.55;;
40162;SDS011;25881;47.462;19.304;2022-12-07T01:22:58;43.07;;;28.67;;
40162;SDS011;25881;47.462;19.304;2022-12-07T01:25:23;46.30;;;26.80;;
40162;SDS011;25881;47.462;19.304;2022-12-07T01:27:48;47.50;;;27.93;;
40162;SDS011;25881;47.462;19.304;2022-12-07T01:30:13;49.07;;;28.10;;
40162;SDS011;25881;47.462;19.304;2022-12-07T01:32:39;47.83;;;28.10;;
40162;SDS011;25881;47.462;19.304;2022-12-07T01:35:04;45.53;;;27.90;;
40162;SDS011;25881;47.462;19.304;2022-12-07T01:37:33;41.00;;;26.77;;
40162;SDS011;25881;47.462;19.304;2022-12-07T01:39:58;47.53;;;28.85;;
40162;SDS011;25881;47.462;19.304;2022-12-07T01:42:24;43.50;;;25.73;;
40162;SDS011;25881;47.462;19.304;2022-12-07T01:47:33;108.55;;;35.25;;
40162;SDS011;25881;47.462;19.304;2022-12-07T01:49:58;60.00;;;32.53;;
40162;SDS011;25881;47.462;19.304;2022-12-07T01:52:25;68.93;;;31.33;;
40162;SDS011;25881;47.462;19.304;2022-12-07T01:54:53;62.88;;;31.55;;
40162;SDS011;25881;47.462;19.304;2022-12-07T01:57:19;69.90;;;31.48;;
40162;SDS011;25881;47.462;19.304;2022-12-07T01:59:45;56.80;;;27.58;;
40162;SDS011;25881;47.462;19.304;2022-12-07T02:02:15;59.38;;;27.83;;
40162;SDS011;25881;47.462;19.304;2022-12-07T02:04:42;52.60;;;29.38;;
40162;SDS011;25881;47.462;19.304;2022-12-07T02:07:08;67.20;;;28.08;;
40162;SDS011;25881;47.462;19.304;2022-12-07T02:09:33;66.43;;;30.20;;
40162;SDS011;25881;47.462;19.304;2022-12-07T02:11:58;54.08;;;28.30;;
40162;SDS011;25881;47.462;19.304;2022-12-07T02:14:24;74.80;;;31.27;;
40162;SDS011;25881;47.462;19.304;2022-12-07T02:17:11;67.97;;;29.33;;
40162;SDS011;25881;47.462;19.304;2022-12-07T02:19:48;120.65;;;30.63;;
40162;SDS011;25881;47.462;19.304;2022-12-07T02:27:46;61.83;;;25.08;;
40162;SDS011;25881;47.462;19.304;2022-12-07T02:30:19;41.75;;;24.85;;
40162;SDS011;25881;47.462;19.304;2022-12-07T02:35:47;64.78;;;26.60;;
40162;SDS011;25881;47.462;19.304;2022-12-07T02:38:18;59.03;;;25.02;;
40162;SDS011;25881;47.462;19.304;2022-12-07T02:40:50;47.90;;;26.13;;
40162;SDS011;25881;47.462;19.304;2022-12-07T02:43:23;48.42;;;24.13;;
40162;SDS011;25881;47.462;19.304;2022-12-07T02:45:48;43.92;;;25.00;;
40162;SDS011;25881;47.462;19.304;2022-12-07T02:48:16;60.38;;;24.90;;
40162;SDS011;25881;47.462;19.304;2022-12-07T02:50:48;65.53;;;27.40;;
40162;SDS011;25881;47.462;19.304;2022-12-07T02:55:57;46.80;;;25.27;;
40162;SDS011;25881;47.462;19.304;2022-12-07T02:58:27;45.78;;;25.75;;
40162;SDS011;25881;47.462;19.304;2022-12-07T03:01:09;48.45;;;24.60;;
40162;SDS011;25881;47.462;19.304;2022-12-07T03:03:36;51.65;;;26.20;;
40162;SDS011;25881;47.462;19.304;2022-12-07T03:06:16;52.90;;;27.55;;
40162;SDS011;25881;47.462;19.304;2022-12-07T03:08:48;42.00;;;23.95;;
40162;SDS011;25881;47.462;19.304;2022-12-07T03:11:16;41.92;;;25.60;;
40162;SDS011;25881;47.462;19.304;2022-12-07T03:13:59;43.53;;;24.45;;
40162;SDS011;25881;47.462;19.304;2022-12-07T03:19:13;45.33;;;25.48;;
40162;SDS011;25881;47.462;19.304;2022-12-07T03:21:41;46.33;;;24.30;;
40162;SDS011;25881;47.462;19.304;2022-12-07T03:24:10;42.75;;;24.98;;
40162;SDS011;25881;47.462;19.304;2022-12-07T03:26:36;46.25;;;25.70;;
40162;SDS011;25881;47.462;19.304;2022-12-07T03:29:05;44.20;;;27.15;;
40162;SDS011;25881;47.462;19.304;2022-12-07T03:31:32;39.25;;;24.67;;
40162;SDS011;25881;47.462;19.304;2022-12-07T03:37:03;42.28;;;24.98;;
40162;SDS011;25881;47.462;19.304;2022-12-07T03:39:45;42.97;;;23.88;;
40162;SDS011;25881;47.462;19.304;2022-12-07T03:42:11;45.33;;;25.63;;
40162;SDS011;25881;47.462;19.304;2022-12-07T03:44:38;41.60;;;24.92;;
40162;SDS011;25881;47.462;19.304;2022-12-07T03:47:12;37.97;;;23.25;;
40162;SDS011;25881;47.462;19.304;2022-12-07T03:52:18;52.50;;;29.02;;
40162;SDS011;25881;47.462;19.304;2022-12-07T03:54:57;46.28;;;26.40;;
40162;SDS011;25881;47.462;19.304;2022-12-07T03:57:25;40.53;;;24.20;;
40162;SDS011;25881;47.462;19.304;2022-12-07T03:59:50;45.20;;;26.92;;
40162;SDS011;25881;47.462;19.304;2022-12-07T04:02:16;46.25;;;26.52;;
40162;SDS011;25881;47.462;19.304;2022-12-07T04:04:42;48.20;;;28.58;;
40162;SDS011;25881;47.462;19.304;2022-12-07T04:07:08;46.75;;;26.95;;
40162;SDS011;25881;47.462;19.304;2022-12-07T04:09:33;41.70;;;26.50;;
40162;SDS011;25881;47.462;19.304;2022-12-07T04:11:58;53.08;;;26.33;;
40162;SDS011;25881;47.462;19.304;2022-12-07T04:14:24;44.70;;;26.77;;
40162;SDS011;25881;47.462;19.304;2022-12-07T04:16:51;45.70;;;26.27;;
40162;SDS011;25881;47.462;19.304;2022-12-07T04:19:18;55.13;;;26.85;;
40162;SDS011;25881;47.462;19.304;2022-12-07T04:21:44;43.43;;;25.53;;
40162;SDS011;25881;47.462;19.304;2022-12-07T04:24:09;48.08;;;27.95;;
40162;SDS011;25881;47.462;19.304;2022-12-07T04:26:34;58.95;;;28.10;;
40162;SDS011;25881;47.462;19.304;2022-12-07T04:29:00;111.28;;;32.53;;
40162;SDS011;25881;47.462;19.304;2022-12-07T04:31:25;139.27;;;35.30;;
40162;SDS011;25881;47.462;19.304;2022-12-07T04:33:50;52.27;;;28.23;;
40162;SDS011;25881;47.462;19.304;2022-12-07T04:36:15;69.75;;;31.27;;
40162;SDS011;25881;47.462;19.304;2022-12-07T04:38:41;52.67;;;27.98;;
40162;SDS011;25881;47.462;19.304;2022-12-07T04:41:06;48.20;;;27.37;;
40162;SDS011;25881;47.462;19.304;2022-12-07T04:43:32;54.55;;;29.17;;
40162;SDS011;25881;47.462;19.304;2022-12-07T04:45:57;57.20;;;32.45;;
40162;SDS011;25881;47.462;19.304;2022-12-07T04:48:23;65.57;;;32.65;;
40162;SDS011;25881;47.462;19.304;2022-12-07T04:50:48;49.90;;;27.87;;
40162;SDS011;25881;47.462;19.304;2022-12-07T04:53:14;48.47;;;29.23;;
40162;SDS011;25881;47.462;19.304;2022-12-07T04:55:39;53.92;;;31.77;;
40162;SDS011;25881;47.462;19.304;2022-12-07T04:58:05;46.20;;;27.67;;
40162;SDS011;25881;47.462;19.304;2022-12-07T05:00:30;46.53;;;27.70;;
40162;SDS011;25881;47.462;19.304;2022-12-07T05:02:55;47.20;;;28.63;;
40162;SDS011;25881;47.462;19.304;2022-12-07T05:05:20;43.20;;;26.93;;
40162;SDS011;25881;47.462;19.304;2022-12-07T05:07:45;49.00;;;29.00;;
40162;SDS011;25881;47.462;19.304;2022-12-07T05:10:11;50.67;;;28.87;;
40162;SDS011;25881;47.462;19.304;2022-12-07T05:12:36;48.42;;;28.90;;
40162;SDS011;25881;47.462;19.304;2022-12-07T05:15:01;55.37;;;31.77;;
40162;SDS011;25881;47.462;19.304;2022-12-07T05:17:27;44.58;;;27.77;;
40162;SDS011;25881;47.462;19.304;2022-12-07T05:19:52;47.78;;;27.67;;
40162;SDS011;25881;47.462;19.304;2022-12-07T05:22:17;53.13;;;30.17;;
40162;SDS011;25881;47.462;19.304;2022-12-07T05:24:42;48.27;;;28.60;;
40162;SDS011;25881;47.462;19.304;2022-12-07T05:27:07;48.83;;;27.63;;
40162;SDS011;25881;47.462;19.304;2022-12-07T05:29:33;43.47;;;26.42;;
40162;SDS011;25881;47.462;19.304;2022-12-07T05:31:58;49.03;;;29.60;;
40162;SDS011;25881;47.462;19.304;2022-12-07T05:34:23;45.47;;;28.20;;
40162;SDS011;25881;47.462;19.304;2022-12-07T05:36:48;47.55;;;30.25;;
40162;SDS011;25881;47.462;19.304;2022-12-07T05:39:15;49.85;;;30.98;;
40162;SDS011;25881;47.462;19.304;2022-12-07T05:41:40;50.67;;;29.10;;
40162;SDS011;25881;47.462;19.304;2022-12-07T05:44:24;52.22;;;31.90;;
40162;SDS011;25881;47.462;19.304;2022-12-07T05:46:49;62.03;;;35.63;;
40162;SDS011;25881;47.462;19.304;2022-12-07T05:49:14;54.63;;;32.97;;
40162;SDS011;25881;47.462;19.304;2022-12-07T05:51:39;64.32;;;36.38;;
40162;SDS011;25881;47.462;19.304;2022-12-07T05:54:05;52.43;;;31.70;;
40162;SDS011;25881;47.462;19.304;2022-12-07T05:56:30;47.65;;;30.83;;
40162;SDS011;25881;47.462;19.304;2022-12-07T05:58:55;45.67;;;28.97;;
40162;SDS011;25881;47.462;19.304;2022-12-07T06:01:40;50.30;;;30.17;;
40162;SDS011;25881;47.462;19.304;2022-12-07T06:04:05;43.95;;;27.85;;
40162;SDS011;25881;47.462;19.304;2022-12-07T06:06:30;53.60;;;31.67;;
40162;SDS011;25881;47.462;19.304;2022-12-07T06:08:55;49.93;;;30.10;;
40162;SDS011;25881;47.462;19.304;2022-12-07T06:11:21;53.77;;;30.80;;
40162;SDS011;25881;47.462;19.304;2022-12-07T06:14:05;74.43;;;35.92;;
40162;SDS011;25881;47.462;19.304;2022-12-07T06:16:30;75.07;;;37.50;;
40162;SDS011;25881;47.462;19.304;2022-12-07T06:18:55;64.90;;;34.90;;
40162;SDS011;25881;47.462;19.304;2022-12-07T06:21:20;72.40;;;37.13;;
40162;SDS011;25881;47.462;19.304;2022-12-07T06:23:46;52.55;;;32.40;;
40162;SDS011;25881;47.462;19.304;2022-12-07T06:26:12;61.40;;;32.55;;
40162;SDS011;25881;47.462;19.304;2022-12-07T06:28:37;148.07;;;45.77;;
40162;SDS011;25881;47.462;19.304;2022-12-07T06:31:03;83.68;;;39.70;;
40162;SDS011;25881;47.462;19.304;2022-12-07T06:33:28;141.73;;;43.92;;
40162;SDS011;25881;47.462;19.304;2022-12-07T06:35:54;126.80;;;41.90;;
40162;SDS011;25881;47.462;19.304;2022-12-07T06:38:19;67.55;;;34.10;;
40162;SDS011;25881;47.462;19.304;2022-12-07T06:40:44;65.47;;;33.97;;
40162;SDS011;25881;47.462;19.304;2022-12-07T06:43:09;74.03;;;34.30;;
40162;SDS011;25881;47.462;19.304;2022-12-07T06:45:35;101.53;;;39.53;;
40162;SDS011;25881;47.462;19.304;2022-12-07T06:48:00;80.70;;;38.55;;
40162;SDS011;25881;47.462;19.304;2022-12-07T06:50:25;57.90;;;31.10;;
40162;SDS011;25881;47.462;19.304;2022-12-07T06:52:51;62.85;;;31.48;;
40162;SDS011;25881;47.462;19.304;2022-12-07T06:55:16;62.92;;;34.50;;
40162;SDS011;25881;47.462;19.304;2022-12-07T06:57:41;65.60;;;36.67;;
40162;SDS011;25881;47.462;19.304;2022-12-07T07:00:07;72.43;;;41.22;;
40162;SDS011;25881;47.462;19.304;2022-12-07T07:02:32;82.20;;;43.35;;
40162;SDS011;25881;47.462;19.304;2022-12-07T07:04:58;107.20;;;49.63;;
40162;SDS011;25881;47.462;19.304;2022-12-07T07:07:23;70.40;;;38.90;;
40162;SDS011;25881;47.462;19.304;2022-12-07T07:09:48;68.50;;;35.80;;
40162;SDS011;25881;47.462;19.304;2022-12-07T07:12:13;57.60;;;34.80;;
40162;SDS011;25881;47.462;19.304;2022-12-07T07:14:38;58.77;;;33.17;;
40162;SDS011;25881;47.462;19.304;2022-12-07T07:17:04;51.40;;;30.13;;
40162;SDS011;25881;47.462;19.304;2022-12-07T07:19:29;55.13;;;32.03;;
40162;SDS011;25881;47.462;19.304;2022-12-07T07:21:54;63.53;;;36.00;;
40162;SDS011;25881;47.462;19.304;2022-12-07T07:24:19;54.37;;;32.17;;
40162;SDS011;25881;47.462;19.304;2022-12-07T07:26:45;59.58;;;30.27;;
40162;SDS011;25881;47.462;19.304;2022-12-07T07:29:10;48.23;;;28.57;;
40162;SDS011;25881;47.462;19.304;2022-12-07T07:31:35;68.38;;;35.45;;
40162;SDS011;25881;47.462;19.304;2022-12-07T07:34:02;53.58;;;31.70;;
40162;SDS011;25881;47.462;19.304;2022-12-07T07:36:27;61.15;;;33.50;;
40162;SDS011;25881;47.462;19.304;2022-12-07T07:38:52;50.37;;;29.57;;
40162;SDS011;25881;47.462;19.304;2022-12-07T07:41:18;63.20;;;32.97;;
40162;SDS011;25881;47.462;19.304;2022-12-07T07:43:43;60.35;;;32.47;;
40162;SDS011;25881;47.462;19.304;2022-12-07T07:46:08;64.27;;;34.60;;
40162;SDS011;25881;47.462;19.304;2022-12-07T07:48:33;72.83;;;39.13;;
40162;SDS011;25881;47.462;19.304;2022-12-07T07:50:59;84.40;;;39.37;;
40162;SDS011;25881;47.462;19.304;2022-12-07T07:53:24;78.03;;;39.35;;
40162;SDS011;25881;47.462;19.304;2022-12-07T07:55:52;80.88;;;40.20;;
40162;SDS011;25881;47.462;19.304;2022-12-07T08:00:43;95.03;;;41.35;;
40162;SDS011;25881;47.462;19.304;2022-12-07T08:03:08;83.77;;;38.33;;
40162;SDS011;25881;47.462;19.304;2022-12-07T08:05:36;97.03;;;43.40;;
40162;SDS011;25881;47.462;19.304;2022-12-07T08:08:01;104.65;;;40.95;;
40162;SDS011;25881;47.462;19.304;2022-12-07T08:10:26;112.10;;;43.30;;
40162;SDS011;25881;47.462;19.304;2022-12-07T08:12:52;90.15;;;39.35;;
40162;SDS011;25881;47.462;19.304;2022-12-07T08:15:35;119.57;;;48.75;;
40162;SDS011;25881;47.462;19.304;2022-12-07T08:18:01;105.90;;;43.55;;
40162;SDS011;25881;47.462;19.304;2022-12-07T08:20:26;90.13;;;45.50;;
40162;SDS011;25881;47.462;19.304;2022-12-07T08:22:51;96.43;;;44.67;;
40162;SDS011;25881;47.462;19.304;2022-12-07T08:25:17;239.15;;;58.60;;
40162;SDS011;25881;47.462;19.304;2022-12-07T08:27:42;278.90;;;62.08;;
40162;SDS011;25881;47.462;19.304;2022-12-07T08:30:07;92.18;;;45.67;;
40162;SDS011;25881;47.462;19.304;2022-12-07T08:32:33;108.72;;;46.25;;
40162;SDS011;25881;47.462;19.304;2022-12-07T08:34:58;105.53;;;49.50;;
40162;SDS011;25881;47.462;19.304;2022-12-07T08:37:23;113.97;;;50.50;;
40162;SDS011;25881;47.462;19.304;2022-12-07T08:39:48;112.40;;;50.97;;
40162;SDS011;25881;47.462;19.304;2022-12-07T08:42:14;108.63;;;46.80;;
40162;SDS011;25881;47.462;19.304;2022-12-07T08:44:39;115.80;;;49.73;;
40162;SDS011;25881;47.462;19.304;2022-12-07T08:47:05;119.38;;;51.78;;
40162;SDS011;25881;47.462;19.304;2022-12-07T08:49:33;100.15;;;48.75;;
40162;SDS011;25881;47.462;19.304;2022-12-07T08:52:00;120.28;;;55.70;;
40162;SDS011;25881;47.462;19.304;2022-12-07T08:54:26;141.13;;;53.67;;
40162;SDS011;25881;47.462;19.304;2022-12-07T08:56:53;108.20;;;52.47;;
40162;SDS011;25881;47.462;19.304;2022-12-07T08:59:18;105.40;;;52.05;;
40162;SDS011;25881;47.462;19.304;2022-12-07T09:01:44;145.95;;;64.72;;
40162;SDS011;25881;47.462;19.304;2022-12-07T09:04:09;112.80;;;56.58;;
40162;SDS011;25881;47.462;19.304;2022-12-07T09:06:35;122.13;;;60.78;;
40162;SDS011;25881;47.462;19.304;2022-12-07T09:09:00;140.70;;;62.55;;
40162;SDS011;25881;47.462;19.304;2022-12-07T09:11:26;104.90;;;53.17;;
40162;SDS011;25881;47.462;19.304;2022-12-07T09:13:51;126.25;;;60.92;;
40162;SDS011;25881;47.462;19.304;2022-12-07T09:16:17;105.72;;;56.17;;
40162;SDS011;25881;47.462;19.304;2022-12-07T09:18:42;114.45;;;59.65;;
40162;SDS011;25881;47.462;19.304;2022-12-07T09:21:08;106.90;;;54.03;;
40162;SDS011;25881;47.462;19.304;2022-12-07T09:23:33;128.75;;;60.55;;
40162;SDS011;25881;47.462;19.304;2022-12-07T09:25:59;120.47;;;60.87;;
40162;SDS011;25881;47.462;19.304;2022-12-07T09:28:25;109.68;;;55.63;;
40162;SDS011;25881;47.462;19.304;2022-12-07T09:30:50;111.55;;;57.75;;
40162;SDS011;25881;47.462;19.304;2022-12-07T09:33:15;114.30;;;60.23;;
40162;SDS011;25881;47.462;19.304;2022-12-07T09:35:44;109.43;;;56.63;;
40162;SDS011;25881;47.462;19.304;2022-12-07T09:38:09;136.70;;;67.07;;
40162;SDS011;25881;47.462;19.304;2022-12-07T09:40:34;110.10;;;58.13;;
40162;SDS011;25881;47.462;19.304;2022-12-07T09:42:59;111.43;;;58.23;;
40162;SDS011;25881;47.462;19.304;2022-12-07T09:45:32;115.33;;;60.97;;
40162;SDS011;25881;47.462;19.304;2022-12-07T09:47:58;104.05;;;55.10;;
40162;SDS011;25881;47.462;19.304;2022-12-07T09:50:26;95.65;;;50.83;;
40162;SDS011;25881;47.462;19.304;2022-12-07T09:52:51;105.07;;;55.15;;
40162;SDS011;25881;47.462;19.304;2022-12-07T09:55:24;101.43;;;54.13;;
40162;SDS011;25881;47.462;19.304;2022-12-07T09:57:51;116.13;;;65.93;;
40162;SDS011;25881;47.462;19.304;2022-12-07T10:00:18;109.03;;;58.08;;
40162;SDS011;25881;47.462;19.304;2022-12-07T10:02:47;128.32;;;67.93;;
40162;SDS011;25881;47.462;19.304;2022-12-07T10:05:24;129.40;;;65.55;;
40162;SDS011;25881;47.462;19.304;2022-12-07T10:07:50;121.80;;;69.05;;
40162;SDS011;25881;47.462;19.304;2022-12-07T10:10:17;99.45;;;56.58;;
40162;SDS011;25881;47.462;19.304;2022-12-07T10:12:55;95.70;;;53.13;;
40162;SDS011;25881;47.462;19.304;2022-12-07T10:15:20;83.10;;;48.80;;
40162;SDS011;25881;47.462;19.304;2022-12-07T10:17:49;86.55;;;46.28;;
40162;SDS011;25881;47.462;19.304;2022-12-07T10:22:53;95.85;;;53.55;;
40162;SDS011;25881;47.462;19.304;2022-12-07T10:25:20;119.18;;;64.85;;
40162;SDS011;25881;47.462;19.304;2022-12-07T10:27:56;139.80;;;68.97;;
40162;SDS011;25881;47.462;19.304;2022-12-07T10:30:22;105.75;;;60.45;;
40162;SDS011;25881;47.462;19.304;2022-12-07T10:32:47;112.17;;;60.53;;
40162;SDS011;25881;47.462;19.304;2022-12-07T10:35:20;120.50;;;62.33;;
40162;SDS011;25881;47.462;19.304;2022-12-07T10:37:46;104.07;;;57.90;;
40162;SDS011;25881;47.462;19.304;2022-12-07T10:40:30;92.97;;;51.92;;
40162;SDS011;25881;47.462;19.304;2022-12-07T10:45:30;91.75;;;52.53;;
40162;SDS011;25881;47.462;19.304;2022-12-07T11:01:05;88.30;;;52.00;;
40162;SDS011;25881;47.462;19.304;2022-12-07T11:08:44;80.22;;;48.03;;
40162;SDS011;25881;47.462;19.304;2022-12-07T11:11:27;71.13;;;44.28;;
40162;SDS011;25881;47.462;19.304;2022-12-07T11:21:39;73.93;;;44.45;;
40162;SDS011;25881;47.462;19.304;2022-12-07T11:24:10;71.30;;;41.90;;
40162;SDS011;25881;47.462;19.304;2022-12-07T11:32:15;75.68;;;46.08;;
40162;SDS011;25881;47.462;19.304;2022-12-07T11:37:34;67.40;;;42.08;;
40162;SDS011;25881;47.462;19.304;2022-12-07T11:40:00;60.10;;;37.67;;
40162;SDS011;25881;47.462;19.304;2022-12-07T11:42:30;55.90;;;36.67;;
40162;SDS011;25881;47.462;19.304;2022-12-07T11:45:32;53.53;;;34.45;;
40162;SDS011;25881;47.462;19.304;2022-12-07T11:47:54;53.03;;;34.67;;
40162;SDS011;25881;47.462;19.304;2022-12-07T12:00:46;43.83;;;28.92;;
40162;SDS011;25881;47.462;19.304;2022-12-07T12:03:15;42.20;;;26.73;;
40162;SDS011;25881;47.462;19.304;2022-12-07T12:05:41;42.13;;;28.90;;
40162;SDS011;25881;47.462;19.304;2022-12-07T12:10:48;40.42;;;27.10;;
40162;SDS011;25881;47.462;19.304;2022-12-07T12:13:47;42.38;;;26.85;;
40162;SDS011;25881;47.462;19.304;2022-12-07T12:16:11;39.35;;;25.77;;
40162;SDS011;25881;47.462;19.304;2022-12-07T12:18:41;38.70;;;25.52;;
40162;SDS011;25881;47.462;19.304;2022-12-07T12:21:12;38.13;;;24.75;;
40162;SDS011;25881;47.462;19.304;2022-12-07T12:23:43;50.80;;;31.92;;
40162;SDS011;25881;47.462;19.304;2022-12-07T12:26:17;37.15;;;25.63;;
40162;SDS011;25881;47.462;19.304;2022-12-07T12:33:36;15.95;;;11.15;;
40162;SDS011;25881;47.462;19.304;2022-12-07T12:43:58;13.57;;;8.98;;
40162;SDS011;25881;47.462;19.304;2022-12-07T12:51:42;14.05;;;8.85;;
40162;SDS011;25881;47.462;19.304;2022-12-07T13:01:49;15.40;;;9.00;;
40162;SDS011;25881;47.462;19.304;2022-12-07T13:04:17;19.88;;;12.70;;
40162;SDS011;25881;47.462;19.304;2022-12-07T13:06:43;17.40;;;11.60;;
40162;SDS011;25881;47.462;19.304;2022-12-07T13:09:17;19.13;;;12.10;;
40162;SDS011;25881;47.462;19.304;2022-12-07T13:11:44;17.77;;;11.70;;
40162;SDS011;25881;47.462;19.304;2022-12-07T13:16:54;17.33;;;11.23;;
40162;SDS011;25881;47.462;19.304;2022-12-07T13:22:03;20.58;;;12.43;;
40162;SDS011;25881;47.462;19.304;2022-12-07T13:24:28;18.57;;;13.83;;
40162;SDS011;25881;47.462;19.304;2022-12-07T13:26:56;19.05;;;12.15;;
40162;SDS011;25881;47.462;19.304;2022-12-07T13:29:22;17.33;;;12.00;;
40162;SDS011;25881;47.462;19.304;2022-12-07T13:31:52;18.08;;;11.48;;
40162;SDS011;25881;47.462;19.304;2022-12-07T13:36:55;60.63;;;27.20;;
40162;SDS011;25881;47.462;19.304;2022-12-07T13:39:22;57.65;;;26.67;;
40162;SDS011;25881;47.462;19.304;2022-12-07T13:41:52;73.32;;;32.47;;
40162;SDS011;25881;47.462;19.304;2022-12-07T13:44:17;108.45;;;38.65;;
40162;SDS011;25881;47.462;19.304;2022-12-07T13:51:52;23.77;;;15.40;;
40162;SDS011;25881;47.462;19.304;2022-12-07T13:54:19;22.42;;;14.63;;
40162;SDS011;25881;47.462;19.304;2022-12-07T13:56:47;21.17;;;13.50;;
40162;SDS011;25881;47.462;19.304;2022-12-07T13:59:16;19.67;;;12.48;;
40162;SDS011;25881;47.462;19.304;2022-12-07T14:01:41;15.88;;;11.65;;
40162;SDS011;25881;47.462;19.304;2022-12-07T14:04:18;16.83;;;11.75;;
40162;SDS011;25881;47.462;19.304;2022-12-07T14:06:50;17.13;;;12.23;;
40162;SDS011;25881;47.462;19.304;2022-12-07T14:09:22;15.65;;;11.25;;
40162;SDS011;25881;47.462;19.304;2022-12-07T14:11:48;17.10;;;11.43;;
40162;SDS011;25881;47.462;19.304;2022-12-07T14:14:16;21.33;;;12.63;;
40162;SDS011;25881;47.462;19.304;2022-12-07T14:16:43;16.02;;;11.77;;
40162;SDS011;25881;47.462;19.304;2022-12-07T14:22:35;16.27;;;10.80;;
40162;SDS011;25881;47.462;19.304;2022-12-07T14:27:15;18.88;;;11.00;;
40162;SDS011;25881;47.462;19.304;2022-12-07T14:29:41;17.05;;;11.98;;
40162;SDS011;25881;47.462;19.304;2022-12-07T14:32:25;17.03;;;11.63;;
40162;SDS011;25881;47.462;19.304;2022-12-07T14:34:58;18.00;;;12.10;;
40162;SDS011;25881;47.462;19.304;2022-12-07T14:37:24;20.42;;;13.32;;
40162;SDS011;25881;47.462;19.304;2022-12-07T14:39:49;20.55;;;13.23;;
40162;SDS011;25881;47.462;19.304;2022-12-07T14:42:15;20.10;;;14.32;;
40162;SDS011;25881;47.462;19.304;2022-12-07T14:44:40;20.20;;;13.60;;
40162;SDS011;25881;47.462;19.304;2022-12-07T14:47:08;21.63;;;13.13;;
40162;SDS011;25881;47.462;19.304;2022-12-07T14:49:33;20.37;;;13.63;;
40162;SDS011;25881;47.462;19.304;2022-12-07T14:51:58;22.13;;;14.70;;
40162;SDS011;25881;47.462;19.304;2022-12-07T14:54:24;20.70;;;13.97;;
40162;SDS011;25881;47.462;19.304;2022-12-07T14:59:17;21.83;;;14.20;;
40162;SDS011;25881;47.462;19.304;2022-12-07T15:01:44;21.13;;;14.65;;
40162;SDS011;25881;47.462;19.304;2022-12-07T15:04:09;28.70;;;15.25;;
40162;SDS011;25881;47.462;19.304;2022-12-07T15:06:34;26.33;;;15.10;;
40162;SDS011;25881;47.462;19.304;2022-12-07T15:09:00;29.85;;;16.08;;
40162;SDS011;25881;47.462;19.304;2022-12-07T15:11:25;34.95;;;19.42;;
40162;SDS011;25881;47.462;19.304;2022-12-07T15:13:50;33.47;;;18.60;;
40162;SDS011;25881;47.462;19.304;2022-12-07T15:16:38;57.33;;;29.75;;
40162;SDS011;25881;47.462;19.304;2022-12-07T15:19:05;39.95;;;23.73;;
40162;SDS011;25881;47.462;19.304;2022-12-07T15:21:30;36.35;;;20.17;;
40162;SDS011;25881;47.462;19.304;2022-12-07T15:23:55;35.42;;;20.38;;
40162;SDS011;25881;47.462;19.304;2022-12-07T15:26:20;35.17;;;17.45;;
40162;SDS011;25881;47.462;19.304;2022-12-07T15:28:46;30.90;;;17.83;;
40162;SDS011;25881;47.462;19.304;2022-12-07T15:31:12;27.92;;;16.70;;
40162;SDS011;25881;47.462;19.304;2022-12-07T15:33:37;35.30;;;19.92;;
40162;SDS011;25881;47.462;19.304;2022-12-07T15:36:02;38.47;;;20.37;;
40162;SDS011;25881;47.462;19.304;2022-12-07T15:38:27;36.20;;;20.83;;
40162;SDS011;25881;47.462;19.304;2022-12-07T15:40:55;28.40;;;17.52;;
40162;SDS011;25881;47.462;19.304;2022-12-07T15:43:20;22.50;;;14.13;;
40162;SDS011;25881;47.462;19.304;2022-12-07T15:46:04;22.45;;;13.30;;
40162;SDS011;25881;47.462;19.304;2022-12-07T15:48:29;23.27;;;14.02;;
40162;SDS011;25881;47.462;19.304;2022-12-07T15:51:01;27.73;;;15.33;;
40162;SDS011;25881;47.462;19.304;2022-12-07T15:53:26;23.42;;;14.85;;
40162;SDS011;25881;47.462;19.304;2022-12-07T15:55:52;21.40;;;13.37;;
40162;SDS011;25881;47.462;19.304;2022-12-07T15:58:17;22.00;;;13.33;;
40162;SDS011;25881;47.462;19.304;2022-12-07T16:00:42;23.73;;;14.43;;
40162;SDS011;25881;47.462;19.304;2022-12-07T16:03:07;25.03;;;15.27;;
40162;SDS011;25881;47.462;19.304;2022-12-07T16:05:32;25.80;;;15.67;;
40162;SDS011;25881;47.462;19.304;2022-12-07T16:07:58;38.30;;;18.23;;
40162;SDS011;25881;47.462;19.304;2022-12-07T16:10:23;30.23;;;17.77;;